createdAt,value
2023-02-23T00:00:58.097Z,99.99
2023-02-23T00:01:58.135Z,99.99
2023-02-23T00:02:58.193Z,99.99
2023-02-23T00:03:58.171Z,99.99
2023-02-23T00:04:58.091Z,99.99
2023-02-23T00:05:58.060Z,99.99
2023-02-23T00:06:58.064Z,99.99
2023-02-23T00:07:58.046Z,99.99
2023-02-23T00:08:58.017Z,99.99
2023-02-23T00:09:58.016Z,99.99
2023-02-23T00:10:58.005Z,99.99
2023-02-23T00:11:58.000Z,99.99
2023-02-23T00:12:57.998Z,99.99
2023-02-23T00:13:57.988Z,99.99
2023-02-23T00:14:57.958Z,99.99
2023-02-23T00:15:57.959Z,99.99
2023-02-23T00:16:57.930Z,99.99
2023-02-23T00:17:57.929Z,99.99
2023-02-23T00:18:57.976Z,99.99
2023-02-23T00:19:58.516Z,99.99
2023-02-23T00:20:57.901Z,99.99
2023-02-23T00:21:57.899Z,99.99
2023-02-23T00:22:57.900Z,99.99
2023-02-23T00:23:57.876Z,99.99
2023-02-23T00:24:57.864Z,99.99
2023-02-23T00:25:57.917Z,99.99
2023-02-23T00:26:57.830Z,99.99
2023-02-23T00:27:57.811Z,99.99
2023-02-23T00:28:57.821Z,99.99
2023-02-23T00:29:57.805Z,99.99
2023-02-23T00:30:59.854Z,99.99
2023-02-23T00:31:57.988Z,99.99
2023-02-23T00:32:57.780Z,99.99
2023-02-23T00:33:57.760Z,99.99
2023-02-23T00:34:57.772Z,99.99
2023-02-23T00:35:57.738Z,99.99
2023-02-23T00:36:57.741Z,99.99
2023-02-23T00:37:58.539Z,99.99
2023-02-23T00:38:57.709Z,99.99
2023-02-23T00:39:57.690Z,99.99
2023-02-23T00:40:57.718Z,99.99
2023-02-23T00:41:57.680Z,99.99
2023-02-23T00:42:57.670Z,99.99
2023-02-23T00:43:57.684Z,99.99
2023-02-23T00:44:57.643Z,99.99
2023-02-23T00:45:57.704Z,99.99
2023-02-23T00:46:58.443Z,99.99
2023-02-23T00:47:57.620Z,99.99
2023-02-23T00:48:57.617Z,99.99
2023-02-23T00:49:57.594Z,99.99
2023-02-23T00:50:57.616Z,99.99
2023-02-23T00:51:57.601Z,99.99
2023-02-23T00:52:57.585Z,99.99
2023-02-23T00:53:57.553Z,99.99
2023-02-23T00:54:57.554Z,99.99
2023-02-23T00:55:57.535Z,99.99
2023-02-23T00:56:57.531Z,99.99
2023-02-23T00:57:57.512Z,99.99
2023-02-23T00:58:57.528Z,99.99
2023-02-23T00:59:57.845Z,99.99
2023-02-23T01:00:57.530Z,99.99
2023-02-23T01:01:57.476Z,99.99
2023-02-23T01:02:57.478Z,99.99
2023-02-23T01:03:57.448Z,99.99
2023-02-23T01:04:57.452Z,99.99
2023-02-23T01:05:57.434Z,99.99
2023-02-23T01:06:57.465Z,99.99
2023-02-23T01:07:57.405Z,99.99
2023-02-23T01:08:57.407Z,99.99
2023-02-23T01:09:57.389Z,99.99
2023-02-23T01:10:57.388Z,99.99
2023-02-23T01:11:57.383Z,99.99
2023-02-23T01:12:57.353Z,99.99
2023-02-23T01:13:57.364Z,99.99
2023-02-23T01:14:57.333Z,99.99
2023-02-23T01:15:57.331Z,99.99
2023-02-23T01:16:57.412Z,99.99
2023-02-23T01:17:57.302Z,99.99
2023-02-23T01:18:57.292Z,99.99
2023-02-23T01:19:57.277Z,99.99
2023-02-23T01:20:57.273Z,99.99
2023-02-23T01:21:57.242Z,99.99
2023-02-23T01:22:57.270Z,99.99
2023-02-23T01:23:57.239Z,99.99
2023-02-23T01:24:57.228Z,99.99
2023-02-23T01:25:57.210Z,99.99
2023-02-23T01:26:57.204Z,99.99
2023-02-23T01:27:57.186Z,99.99
2023-02-23T01:28:57.200Z,99.99
2023-02-23T01:29:57.154Z,99.99
2023-02-23T01:30:57.305Z,99.99
2023-02-23T01:31:57.256Z,99.99
2023-02-23T01:32:57.145Z,99.99
2023-02-23T01:33:57.128Z,99.99
2023-02-23T01:34:57.116Z,99.99
2023-02-23T01:35:57.115Z,99.99
2023-02-23T01:36:57.097Z,99.99
2023-02-23T01:37:57.085Z,99.99
2023-02-23T01:38:57.178Z,99.99
2023-02-23T01:39:57.057Z,99.99
2023-02-23T01:40:57.063Z,99.99
2023-02-23T01:41:57.045Z,99.99
2023-02-23T01:42:57.038Z,99.99
2023-02-23T01:43:57.025Z,99.99
2023-02-23T01:44:57.030Z,99.99
2023-02-23T01:45:57.047Z,99.99
2023-02-23T01:46:57.017Z,99.99
2023-02-23T01:47:56.987Z,99.99
2023-02-23T01:48:56.988Z,99.99
2023-02-23T01:49:56.962Z,99.99
2023-02-23T01:50:56.965Z,99.99
2023-02-23T01:51:56.932Z,99.99
2023-02-23T01:52:56.920Z,99.99
2023-02-23T01:53:56.920Z,99.99
2023-02-23T01:54:56.931Z,99.99
2023-02-23T01:55:56.896Z,99.99
2023-02-23T01:56:56.913Z,99.99
2023-02-23T01:57:57.681Z,99.99
2023-02-23T01:58:56.943Z,99.99
2023-02-23T01:59:56.853Z,99.99
2023-02-23T02:00:56.854Z,99.99
2023-02-23T02:01:56.874Z,99.99
2023-02-23T02:02:56.955Z,99.99
2023-02-23T02:03:56.804Z,99.99
2023-02-23T02:04:56.818Z,99.99
2023-02-23T02:05:56.820Z,99.99
2023-02-23T02:06:56.803Z,99.99
2023-02-23T02:07:56.773Z,99.99
2023-02-23T02:08:56.764Z,99.99
2023-02-23T02:09:56.743Z,99.99
2023-02-23T02:10:56.762Z,99.99
2023-02-23T02:11:56.864Z,99.99
2023-02-23T02:12:56.734Z,99.99
2023-02-23T02:13:56.720Z,99.99
2023-02-23T02:14:56.703Z,99.99
2023-02-23T02:15:56.691Z,99.99
2023-02-23T02:16:56.687Z,99.99
2023-02-23T02:17:56.681Z,99.99
2023-02-23T02:18:56.666Z,99.99
2023-02-23T02:19:56.638Z,99.99
2023-02-23T02:20:56.640Z,99.99
2023-02-23T02:21:56.627Z,99.99
2023-02-23T02:22:56.628Z,99.99
2023-02-23T02:23:56.597Z,99.99
2023-02-23T02:24:56.654Z,99.99
2023-02-23T02:25:56.587Z,99.99
2023-02-23T02:26:56.569Z,99.99
2023-02-23T02:27:56.552Z,99.99
2023-02-23T02:28:56.563Z,99.99
2023-02-23T02:29:56.549Z,99.99
2023-02-23T02:30:56.565Z,99.99
2023-02-23T02:31:56.560Z,99.99
2023-02-23T02:32:56.510Z,99.99
2023-02-23T02:33:56.501Z,99.99
2023-02-23T02:34:56.490Z,99.99
2023-02-23T02:35:56.470Z,99.99
2023-02-23T02:36:56.471Z,99.99
2023-02-23T02:37:56.751Z,99.99
2023-02-23T02:38:56.451Z,99.99
2023-02-23T02:39:56.430Z,99.99
2023-02-23T02:40:56.432Z,99.99
2023-02-23T02:41:56.411Z,99.99
2023-02-23T02:42:56.413Z,99.99
2023-02-23T02:43:56.387Z,99.99
2023-02-23T02:44:56.453Z,99.99
2023-02-23T02:45:56.386Z,99.99
2023-02-23T02:46:56.370Z,99.99
2023-02-23T02:47:56.345Z,99.99
2023-02-23T02:48:56.345Z,99.99
2023-02-23T02:49:57.085Z,99.99
2023-02-23T02:50:56.340Z,99.99
2023-02-23T02:51:56.321Z,99.99
2023-02-23T02:52:56.308Z,99.99
2023-02-23T02:53:57.089Z,99.99
2023-02-23T02:54:56.291Z,99.99
2023-02-23T02:55:56.278Z,99.99
2023-02-23T02:56:56.269Z,99.99
2023-02-23T02:57:56.248Z,99.99
2023-02-23T02:58:56.239Z,99.99
2023-02-23T02:59:56.243Z,99.99
2023-02-23T03:00:56.222Z,99.99
2023-02-23T03:01:56.330Z,99.99
2023-02-23T03:02:56.214Z,99.99
2023-02-23T03:03:56.205Z,99.99
2023-02-23T03:04:56.209Z,99.99
2023-02-23T03:05:56.162Z,99.99
2023-02-23T03:06:56.162Z,99.99
2023-02-23T03:07:56.146Z,99.99
2023-02-23T03:08:56.577Z,99.99
2023-02-23T03:09:56.133Z,99.99
2023-02-23T03:10:56.113Z,99.99
2023-02-23T03:11:56.126Z,99.99
2023-02-23T03:12:56.124Z,99.99
2023-02-23T03:13:56.104Z,99.99
2023-02-23T03:14:56.099Z,99.99
2023-02-23T03:15:56.093Z,99.99
2023-02-23T03:16:56.056Z,99.99
2023-02-23T03:17:56.182Z,99.99
2023-02-23T03:18:56.065Z,99.99
2023-02-23T03:19:56.016Z,99.99
2023-02-23T03:20:56.016Z,99.99
2023-02-23T03:21:55.996Z,99.99
2023-02-23T03:22:55.997Z,99.99
2023-02-23T03:23:55.978Z,99.99
2023-02-23T03:24:55.970Z,99.99
2023-02-23T03:25:55.951Z,99.99
2023-02-23T03:26:55.958Z,99.99
2023-02-23T03:27:55.928Z,99.99
2023-02-23T03:28:55.938Z,99.99
2023-02-23T03:29:55.911Z,99.99
2023-02-23T03:30:55.965Z,99.99
2023-02-23T03:31:56.051Z,99.99
2023-02-23T03:32:55.881Z,99.99
2023-02-23T03:33:55.860Z,99.99
2023-02-23T03:34:55.877Z,99.99
2023-02-23T03:35:55.849Z,99.99
2023-02-23T03:36:55.849Z,99.99
2023-02-23T03:37:55.829Z,99.99
2023-02-23T03:38:55.821Z,99.99
2023-02-23T03:39:55.824Z,99.99
2023-02-23T03:40:55.819Z,99.99
2023-02-23T03:41:55.782Z,99.99
2023-02-23T03:42:55.790Z,99.99
2023-02-23T03:43:55.759Z,99.99
2023-02-23T03:44:55.763Z,99.99
2023-02-23T03:45:55.781Z,99.99
2023-02-23T03:46:55.754Z,99.99
2023-02-23T03:47:55.726Z,99.99
2023-02-23T03:48:55.723Z,99.99
2023-02-23T03:49:55.696Z,99.99
2023-02-23T03:50:55.695Z,99.99
2023-02-23T03:51:55.680Z,99.99
2023-02-23T03:52:55.676Z,99.99
2023-02-23T03:53:55.664Z,99.99
2023-02-23T03:54:55.659Z,99.99
2023-02-23T03:55:55.637Z,99.99
2023-02-23T03:56:55.633Z,99.99
2023-02-23T03:57:55.623Z,99.99
2023-02-23T03:58:55.614Z,99.99
2023-02-23T03:59:55.584Z,99.99
2023-02-23T04:00:55.596Z,99.99
2023-02-23T04:01:55.614Z,99.99
2023-02-23T04:02:55.565Z,99.99
2023-02-23T04:03:55.547Z,99.99
2023-02-23T04:04:55.556Z,99.99
2023-02-23T04:05:55.524Z,99.99
2023-02-23T04:06:55.604Z,99.99
2023-02-23T04:07:55.507Z,99.99
2023-02-23T04:08:55.495Z,99.99
2023-02-23T04:09:55.503Z,99.99
2023-02-23T04:10:55.486Z,99.99
2023-02-23T04:11:55.465Z,99.99
2023-02-23T04:12:55.462Z,99.99
2023-02-23T04:13:55.440Z,99.99
2023-02-23T04:14:55.464Z,99.99
2023-02-23T04:15:55.478Z,99.99
2023-02-23T04:16:55.417Z,99.99
2023-02-23T04:17:55.398Z,99.99
2023-02-23T04:18:55.396Z,99.99
2023-02-23T04:19:55.391Z,99.99
2023-02-23T04:20:55.454Z,99.99
2023-02-23T04:21:55.356Z,99.99
2023-02-23T04:22:55.359Z,99.99
2023-02-23T04:23:55.358Z,99.99
2023-02-23T04:24:55.344Z,99.99
2023-02-23T04:25:55.313Z,99.99
2023-02-23T04:26:55.324Z,99.99
2023-02-23T04:27:55.296Z,99.99
2023-02-23T04:28:55.317Z,99.99
2023-02-23T04:29:55.280Z,99.99
2023-02-23T04:30:55.378Z,99.99
2023-02-23T04:31:55.374Z,99.99
2023-02-23T04:32:55.252Z,99.99
2023-02-23T04:33:55.377Z,99.99
2023-02-23T04:34:55.213Z,99.99
2023-02-23T04:35:55.251Z,99.99
2023-02-23T04:36:55.225Z,99.99
2023-02-23T04:37:55.197Z,99.99
2023-02-23T04:38:55.185Z,99.99
2023-02-23T04:39:55.185Z,99.99
2023-02-23T04:40:55.164Z,99.99
2023-02-23T04:41:55.177Z,99.99
2023-02-23T04:42:55.147Z,99.99
2023-02-23T04:43:55.136Z,99.99
2023-02-23T04:44:55.124Z,99.99
2023-02-23T04:45:55.223Z,99.99
2023-02-23T04:46:55.097Z,99.99
2023-02-23T04:47:55.317Z,99.99
2023-02-23T04:48:55.078Z,99.99
2023-02-23T04:49:55.078Z,99.99
2023-02-23T04:50:55.061Z,99.99
2023-02-23T04:51:55.059Z,99.99
2023-02-23T04:52:55.027Z,99.99
2023-02-23T04:53:55.038Z,99.99
2023-02-23T04:54:55.014Z,99.99
2023-02-23T04:55:55.008Z,99.99
2023-02-23T04:56:55.004Z,99.99
2023-02-23T04:57:54.991Z,99.99
2023-02-23T04:58:54.984Z,99.99
2023-02-23T04:59:54.974Z,99.99
2023-02-23T05:00:54.944Z,99.99
2023-02-23T05:01:54.941Z,99.99
2023-02-23T05:02:54.931Z,99.99
2023-02-23T05:03:54.925Z,99.99
2023-02-23T05:04:54.941Z,99.99
2023-02-23T05:05:54.996Z,99.99
2023-02-23T05:06:54.886Z,99.99
2023-02-23T05:07:54.901Z,99.99
2023-02-23T05:08:54.867Z,99.99
2023-02-23T05:09:54.984Z,99.99
2023-02-23T05:10:54.844Z,99.99
2023-02-23T05:11:54.854Z,99.99
2023-02-23T05:12:54.829Z,99.99
2023-02-23T05:13:54.822Z,99.99
2023-02-23T05:14:54.809Z,99.99
2023-02-23T05:15:54.825Z,99.99
2023-02-23T05:16:54.792Z,99.99
2023-02-23T05:17:54.775Z,99.99
2023-02-23T05:18:54.756Z,99.99
2023-02-23T05:19:55.557Z,99.99
2023-02-23T05:20:54.747Z,99.99
2023-02-23T05:21:54.738Z,99.99
2023-02-23T05:22:54.717Z,99.99
2023-02-23T05:23:54.787Z,99.99
2023-02-23T05:24:57.144Z,99.99
2023-02-23T05:25:54.708Z,99.99
2023-02-23T05:26:54.688Z,99.99
2023-02-23T05:27:54.721Z,99.99
2023-02-23T05:28:54.658Z,99.99
2023-02-23T05:29:54.669Z,99.99
2023-02-23T05:30:54.740Z,99.99
2023-02-23T05:31:54.803Z,99.99
2023-02-23T05:32:54.619Z,99.99
2023-02-23T05:33:54.613Z,99.99
2023-02-23T05:34:54.590Z,99.99
2023-02-23T05:35:54.610Z,99.99
2023-02-23T05:36:54.577Z,99.99
2023-02-23T05:37:54.570Z,99.99
2023-02-23T05:38:54.570Z,99.99
2023-02-23T05:39:54.550Z,99.99
2023-02-23T05:40:54.529Z,99.99
2023-02-23T05:41:54.539Z,99.99
2023-02-23T05:42:54.509Z,99.99
2023-02-23T05:43:54.498Z,99.99
2023-02-23T05:44:54.499Z,99.99
2023-02-23T05:45:54.602Z,99.99
2023-02-23T05:46:54.488Z,99.99
2023-02-23T05:47:54.459Z,99.99
2023-02-23T05:48:54.437Z,99.99
2023-02-23T05:49:54.439Z,99.99
2023-02-23T05:50:54.442Z,99.99
2023-02-23T05:51:55.219Z,99.99
2023-02-23T05:52:54.443Z,99.99
2023-02-23T05:53:54.434Z,99.99
2023-02-23T05:54:54.407Z,99.99
2023-02-23T05:55:54.392Z,99.99
2023-02-23T05:56:54.361Z,99.99
2023-02-23T05:57:54.362Z,99.99
2023-02-23T05:58:54.342Z,99.99
2023-02-23T05:59:54.343Z,99.99
2023-02-23T06:00:54.365Z,99.99
2023-02-23T06:01:54.313Z,99.99
2023-02-23T06:02:54.436Z,99.99
2023-02-23T06:03:54.363Z,99.99
2023-02-23T06:04:54.277Z,99.99
2023-02-23T06:05:54.274Z,99.99
2023-02-23T06:06:54.278Z,99.99
2023-02-23T06:07:54.325Z,99.99
2023-02-23T06:08:54.234Z,99.99
2023-02-23T06:09:54.239Z,99.99
2023-02-23T06:10:54.207Z,99.99
2023-02-23T06:11:54.216Z,99.99
2023-02-23T06:12:54.239Z,99.99
2023-02-23T06:13:54.187Z,99.99
2023-02-23T06:14:54.168Z,99.99
2023-02-23T06:15:54.243Z,99.99
2023-02-23T06:16:54.219Z,99.99
2023-02-23T06:17:54.158Z,99.99
2023-02-23T06:18:54.188Z,99.99
2023-02-23T06:19:54.939Z,99.99
2023-02-23T06:20:54.123Z,99.99
2023-02-23T06:21:54.111Z,99.99
2023-02-23T06:22:54.119Z,99.99
2023-02-23T06:23:54.927Z,99.99
2023-02-23T06:24:54.060Z,99.99
2023-02-23T06:25:54.082Z,99.99
2023-02-23T06:26:54.060Z,99.99
2023-02-23T06:27:54.060Z,99.99
2023-02-23T06:28:54.066Z,99.99
2023-02-23T06:29:54.029Z,99.99
2023-02-23T06:30:54.236Z,99.99
2023-02-23T06:31:54.315Z,99.99
2023-02-23T06:32:54.013Z,99.99
2023-02-23T06:33:53.986Z,99.99
2023-02-23T06:34:54.020Z,99.99
2023-02-23T06:35:54.005Z,99.99
2023-02-23T06:36:53.966Z,99.99
2023-02-23T06:37:54.625Z,99.99
2023-02-23T06:38:53.915Z,99.99
2023-02-23T06:39:53.915Z,99.99
2023-02-23T06:40:53.917Z,99.99
2023-02-23T06:41:53.986Z,99.99
2023-02-23T06:42:53.976Z,99.99
2023-02-23T06:43:53.897Z,99.99
2023-02-23T06:44:53.857Z,99.99
2023-02-23T06:45:53.887Z,99.99
2023-02-23T06:46:53.909Z,99.99
2023-02-23T06:47:53.943Z,99.99
2023-02-23T06:48:53.808Z,99.99
2023-02-23T06:49:53.846Z,99.99
2023-02-23T06:50:53.787Z,99.99
2023-02-23T06:51:53.798Z,99.99
2023-02-23T06:52:53.820Z,99.99
2023-02-23T06:53:53.849Z,99.99
2023-02-23T06:54:53.752Z,99.99
2023-02-23T06:55:53.749Z,99.99
2023-02-23T06:56:53.781Z,99.99
2023-02-23T06:57:53.776Z,99.99
2023-02-23T06:58:53.778Z,99.99
2023-02-23T06:59:53.739Z,99.99
2023-02-23T07:00:54.582Z,99.99
2023-02-23T07:01:53.726Z,99.99
2023-02-23T07:02:53.743Z,99.99
2023-02-23T07:03:54.517Z,99.99
2023-02-23T07:04:53.639Z,99.99
2023-02-23T07:05:53.645Z,99.99
2023-02-23T07:06:53.630Z,99.99
2023-02-23T07:07:53.727Z,99.99
2023-02-23T07:08:54.442Z,99.99
2023-02-23T07:09:53.591Z,99.99
2023-02-23T07:10:53.603Z,99.99
2023-02-23T07:11:53.626Z,99.99
2023-02-23T07:12:54.383Z,99.99
2023-02-23T07:13:53.572Z,99.99
2023-02-23T07:14:53.610Z,99.99
2023-02-23T07:15:53.530Z,99.99
2023-02-23T07:16:53.509Z,99.99
2023-02-23T07:17:53.515Z,99.99
2023-02-23T07:18:53.493Z,99.99
2023-02-23T07:19:53.501Z,99.99
2023-02-23T07:20:53.474Z,99.99
2023-02-23T07:21:53.461Z,99.99
2023-02-23T07:22:53.448Z,99.99
2023-02-23T07:23:53.631Z,99.99
2023-02-23T07:24:53.440Z,99.99
2023-02-23T07:25:53.431Z,99.99
2023-02-23T07:26:53.541Z,99.99
2023-02-23T07:27:53.402Z,99.99
2023-02-23T07:28:54.318Z,99.99
2023-02-23T07:29:53.380Z,99.99
2023-02-23T07:30:53.404Z,99.99
2023-02-23T07:31:53.616Z,99.99
2023-02-23T07:32:53.341Z,99.99
2023-02-23T07:33:53.335Z,99.99
2023-02-23T07:34:53.986Z,99.99
2023-02-23T07:35:53.411Z,99.99
2023-02-23T07:36:53.304Z,99.99
2023-02-23T07:37:53.305Z,99.99
2023-02-23T07:38:53.294Z,99.99
2023-02-23T07:39:54.078Z,99.99
2023-02-23T07:40:53.280Z,99.99
2023-02-23T07:41:53.249Z,99.99
2023-02-23T07:42:53.238Z,99.99
2023-02-23T07:43:53.389Z,99.99
2023-02-23T07:44:53.232Z,99.99
2023-02-23T07:45:53.256Z,99.99
2023-02-23T07:46:53.199Z,99.99
2023-02-23T07:47:53.227Z,99.99
2023-02-23T07:48:53.216Z,99.99
2023-02-23T07:49:53.177Z,99.99
2023-02-23T07:50:53.193Z,99.99
2023-02-23T07:51:53.154Z,99.99
2023-02-23T07:52:53.146Z,99.99
2023-02-23T07:53:53.143Z,99.99
2023-02-23T07:54:53.114Z,99.99
2023-02-23T07:55:53.107Z,99.99
2023-02-23T07:56:53.118Z,99.99
2023-02-23T07:57:53.096Z,99.99
2023-02-23T07:58:53.086Z,99.99
2023-02-23T07:59:53.067Z,99.99
2023-02-23T08:00:53.064Z,99.99
2023-02-23T08:01:53.052Z,99.99
2023-02-23T08:02:53.042Z,99.99
2023-02-23T08:03:53.029Z,99.99
2023-02-23T08:04:53.017Z,99.99
2023-02-23T08:05:53.010Z,99.99
2023-02-23T08:06:52.992Z,99.99
2023-02-23T08:07:53.003Z,99.99
2023-02-23T08:08:52.961Z,99.99
2023-02-23T08:09:53.011Z,99.99
2023-02-23T08:10:52.942Z,99.99
2023-02-23T08:11:52.952Z,99.99
2023-02-23T08:12:52.955Z,99.99
2023-02-23T08:13:52.928Z,99.99
2023-02-23T08:14:52.904Z,99.99
2023-02-23T08:15:52.912Z,99.99
2023-02-23T08:16:52.996Z,99.99
2023-02-23T08:17:52.883Z,99.99
2023-02-23T08:18:52.864Z,99.99
2023-02-23T08:19:52.861Z,99.99
2023-02-23T08:20:52.842Z,99.99
2023-02-23T08:21:52.832Z,99.99
2023-02-23T08:22:52.831Z,99.99
2023-02-23T08:23:52.814Z,99.99
2023-02-23T08:24:52.813Z,99.99
2023-02-23T08:25:52.795Z,99.99
2023-02-23T08:26:52.764Z,99.99
2023-02-23T08:27:52.790Z,99.99
2023-02-23T08:28:52.776Z,99.99
2023-02-23T08:29:52.753Z,99.99
2023-02-23T08:30:53.004Z,99.99
2023-02-23T08:31:52.895Z,99.99
2023-02-23T08:32:52.706Z,99.99
2023-02-23T08:33:52.844Z,99.99
2023-02-23T08:34:52.688Z,99.99
2023-02-23T08:35:52.685Z,99.99
2023-02-23T08:36:52.658Z,99.99
2023-02-23T08:37:52.671Z,99.99
2023-02-23T08:38:52.649Z,99.99
2023-02-23T08:39:52.744Z,99.99
2023-02-23T08:40:52.617Z,99.99
2023-02-23T08:41:52.617Z,99.99
2023-02-23T08:42:52.617Z,99.99
2023-02-23T08:43:52.640Z,99.99
2023-02-23T08:44:52.568Z,99.99
2023-02-23T08:45:52.614Z,99.99
2023-02-23T08:46:52.556Z,99.99
2023-02-23T08:47:52.547Z,99.99
2023-02-23T08:48:52.548Z,99.99
2023-02-23T08:49:52.519Z,99.99
2023-02-23T08:50:52.517Z,99.99
2023-02-23T08:51:52.497Z,99.99
2023-02-23T08:52:52.497Z,99.99
2023-02-23T08:53:52.487Z,99.99
2023-02-23T08:54:52.470Z,99.99
2023-02-23T08:55:52.446Z,99.99
2023-02-23T08:56:52.789Z,99.99
2023-02-23T08:57:52.441Z,99.79
2023-02-23T08:58:52.429Z,99.99
2023-02-23T08:59:52.417Z,99.99
2023-02-23T09:00:52.409Z,99.99
2023-02-23T09:01:53.248Z,99.99
2023-02-23T09:02:52.393Z,99.99
2023-02-23T09:03:52.370Z,99.99
2023-02-23T09:04:52.359Z,99.99
2023-02-23T09:05:52.359Z,99.99
2023-02-23T09:06:52.338Z,99.99
2023-02-23T09:07:52.320Z,99.99
2023-02-23T09:08:52.320Z,99.99
2023-02-23T09:09:52.299Z,99.59
2023-02-23T09:10:52.289Z,99.85
2023-02-23T09:11:52.318Z,99.85
2023-02-23T09:12:52.310Z,99.13
2023-02-23T09:13:52.274Z,97.44
2023-02-23T09:14:52.268Z,97.85
2023-02-23T09:15:52.254Z,98.36
2023-02-23T09:16:52.235Z,98.77
2023-02-23T09:17:52.210Z,99.28
2023-02-23T09:18:52.221Z,98.93
2023-02-23T09:19:52.194Z,98.32
2023-02-23T09:20:52.184Z,98.27
2023-02-23T09:21:52.172Z,97.65
2023-02-23T09:22:52.222Z,97.04
2023-02-23T09:23:52.153Z,97.20
2023-02-23T09:24:52.185Z,96.89
2023-02-23T09:25:52.123Z,95.97
2023-02-23T09:26:52.125Z,96.44
2023-02-23T09:27:52.122Z,96.03
2023-02-23T09:28:52.105Z,94.54
2023-02-23T09:29:52.087Z,95.31
2023-02-23T09:30:52.108Z,95.10
2023-02-23T09:31:52.135Z,93.20
2023-02-23T09:32:52.061Z,93.10
2023-02-23T09:33:52.046Z,94.29
2023-02-23T09:34:52.037Z,94.59
2023-02-23T09:35:52.017Z,94.24
2023-02-23T09:36:52.030Z,92.40
2023-02-23T09:37:52.000Z,91.58
2023-02-23T09:38:52.001Z,91.17
2023-02-23T09:39:51.989Z,92.15
2023-02-23T09:40:51.979Z,92.37
2023-02-23T09:41:52.772Z,90.74
2023-02-23T09:42:51.970Z,90.94
2023-02-23T09:43:51.930Z,87.37
2023-02-23T09:44:51.938Z,88.29
2023-02-23T09:45:51.957Z,91.05
2023-02-23T09:46:51.914Z,90.70
2023-02-23T09:47:51.900Z,90.49
2023-02-23T09:48:51.887Z,87.12
2023-02-23T09:49:51.876Z,88.55
2023-02-23T09:50:51.871Z,87.12
2023-02-23T09:51:51.857Z,88.14
2023-02-23T09:52:51.858Z,90.04
2023-02-23T09:53:51.838Z,88.26
2023-02-23T09:54:51.827Z,86.83
2023-02-23T09:55:51.805Z,83.65
2023-02-23T09:56:51.814Z,86.71
2023-02-23T09:57:51.804Z,85.86
2023-02-23T09:58:51.792Z,87.18
2023-02-23T09:59:51.766Z,85.86
2023-02-23T10:00:51.783Z,88.00
2023-02-23T10:01:51.810Z,87.14
2023-02-23T10:02:51.750Z,85.71
2023-02-23T10:03:51.730Z,87.14
2023-02-23T10:04:51.797Z,85.82
2023-02-23T10:05:51.701Z,84.28
2023-02-23T10:06:51.719Z,86.33
2023-02-23T10:07:51.710Z,85.61
2023-02-23T10:08:51.672Z,85.57
2023-02-23T10:09:51.661Z,87.16
2023-02-23T10:10:51.652Z,83.56
2023-02-23T10:11:51.634Z,85.11
2023-02-23T10:12:51.643Z,81.24
2023-02-23T10:13:51.623Z,83.95
2023-02-23T10:14:51.617Z,81.67
2023-02-23T10:15:51.603Z,81.12
2023-02-23T10:16:51.596Z,80.76
2023-02-23T10:17:52.375Z,81.57
2023-02-23T10:18:51.599Z,82.07
2023-02-23T10:19:51.546Z,82.48
2023-02-23T10:20:51.548Z,79.10
2023-02-23T10:21:51.537Z,80.02
2023-02-23T10:22:51.528Z,81.77
2023-02-23T10:23:51.506Z,80.90
2023-02-23T10:24:51.498Z,80.87
2023-02-23T10:25:51.479Z,81.48
2023-02-23T10:26:51.487Z,83.56
2023-02-23T10:27:51.481Z,82.54
2023-02-23T10:28:51.491Z,81.62
2023-02-23T10:29:51.495Z,84.06
2023-02-23T10:30:51.516Z,83.15
2023-02-23T10:31:51.474Z,81.82
2023-02-23T10:32:51.429Z,82.47
2023-02-23T10:33:51.419Z,81.96
2023-02-23T10:34:51.404Z,84.14
2023-02-23T10:35:54.032Z,83.53
2023-02-23T10:36:52.373Z,82.78
2023-02-23T10:37:51.462Z,84.00
2023-02-23T10:38:51.356Z,82.88
2023-02-23T10:39:54.004Z,82.94
2023-02-23T10:40:51.332Z,83.04
2023-02-23T10:41:51.315Z,82.74
2023-02-23T10:42:51.304Z,83.96
2023-02-23T10:43:51.301Z,83.35
2023-02-23T10:44:51.298Z,82.54
2023-02-23T10:45:51.274Z,83.45
2023-02-23T10:46:51.295Z,82.37
2023-02-23T10:47:51.263Z,83.09
2023-02-23T10:48:51.276Z,82.10
2023-02-23T10:49:51.235Z,83.47
2023-02-23T10:50:51.220Z,85.00
2023-02-23T10:51:52.026Z,84.25
2023-02-23T10:52:51.205Z,84.11
2023-02-23T10:53:51.177Z,86.15
2023-02-23T10:54:51.192Z,82.98
2023-02-23T10:55:51.247Z,83.02
2023-02-23T10:56:51.175Z,83.63
2023-02-23T10:57:51.138Z,83.63
2023-02-23T10:58:51.342Z,84.20
2023-02-23T10:59:51.119Z,81.27
2023-02-23T11:00:51.123Z,82.52
2023-02-23T11:02:01.866Z,81.02
2023-02-23T11:02:52.150Z,75.80
2023-02-23T11:03:57.619Z,76.31
2023-02-23T11:04:52.145Z,76.95
2023-02-23T11:05:51.047Z,75.15
2023-02-23T11:06:51.052Z,72.75
2023-02-23T11:07:51.030Z,71.40
2023-02-23T11:08:51.032Z,73.80
2023-02-23T11:09:51.079Z,74.55
2023-02-23T11:10:51.000Z,74.51
2023-02-23T11:11:50.982Z,73.83
2023-02-23T11:12:50.986Z,73.25
2023-02-23T11:13:50.967Z,73.22
2023-02-23T11:14:50.972Z,69.95
2023-02-23T11:15:51.182Z,70.62
2023-02-23T11:16:50.932Z,70.32
2023-02-23T11:17:50.917Z,71.03
2023-02-23T11:18:50.914Z,70.69
2023-02-23T11:19:50.894Z,66.21
2023-02-23T11:20:50.894Z,66.99
2023-02-23T11:21:50.883Z,68.71
2023-02-23T11:22:50.877Z,68.17
2023-02-23T11:23:50.844Z,66.45
2023-02-23T11:24:50.844Z,67.16
2023-02-23T11:25:50.834Z,67.49
2023-02-23T11:26:50.924Z,67.36
2023-02-23T11:27:50.824Z,65.24
2023-02-23T11:28:50.806Z,66.72
2023-02-23T11:29:50.796Z,63.76
2023-02-23T11:30:50.809Z,63.85
2023-02-23T11:31:50.894Z,66.28
2023-02-23T11:32:50.804Z,65.44
2023-02-23T11:33:50.746Z,64.76
2023-02-23T11:34:50.747Z,65.04
2023-02-23T11:35:50.717Z,66.48
2023-02-23T11:36:50.858Z,67.80
2023-02-23T11:37:50.706Z,65.72
2023-02-23T11:38:50.711Z,65.08
2023-02-23T11:39:50.677Z,65.15
2023-02-23T11:40:50.676Z,62.29
2023-02-23T11:41:50.658Z,60.35
2023-02-23T11:42:50.650Z,58.34
2023-02-23T11:43:50.640Z,58.11
2023-02-23T11:44:50.635Z,57.25
2023-02-23T11:45:50.711Z,59.66
2023-02-23T11:46:50.676Z,61.57
2023-02-23T11:47:50.590Z,62.15
2023-02-23T11:48:50.596Z,60.29
2023-02-23T11:49:50.574Z,64.23
2023-02-23T11:50:50.613Z,67.46
2023-02-23T11:51:50.553Z,63.49
2023-02-23T11:52:50.554Z,62.43
2023-02-23T11:53:50.533Z,60.38
2023-02-23T11:54:50.537Z,57.60
2023-02-23T11:55:50.516Z,58.78
2023-02-23T11:56:50.510Z,58.75
2023-02-23T11:57:50.502Z,60.16
2023-02-23T11:58:50.501Z,56.27
2023-02-23T11:59:50.474Z,56.37
2023-02-23T12:00:50.476Z,53.80
2023-02-23T12:01:50.441Z,57.53
2023-02-23T12:02:50.506Z,58.94
2023-02-23T12:03:50.437Z,58.94
2023-02-23T12:04:50.443Z,59.60
2023-02-23T12:05:50.404Z,60.84
2023-02-23T12:06:50.437Z,62.82
2023-02-23T12:07:50.377Z,62.48
2023-02-23T12:08:50.387Z,62.62
2023-02-23T12:09:50.381Z,61.92
2023-02-23T12:10:50.446Z,59.70
2023-02-23T12:11:50.341Z,59.80
2023-02-23T12:12:50.472Z,58.72
2023-02-23T12:13:50.335Z,60.24
2023-02-23T12:14:50.348Z,61.21
2023-02-23T12:15:50.289Z,59.97
2023-02-23T12:16:50.597Z,58.69
2023-02-23T12:17:50.279Z,60.31
2023-02-23T12:18:50.280Z,58.87
2023-02-23T12:19:50.262Z,57.43
2023-02-23T12:20:51.062Z,56.67
2023-02-23T12:21:51.048Z,56.07
2023-02-23T12:22:50.244Z,56.74
2023-02-23T12:23:52.801Z,55.19
2023-02-23T12:24:50.218Z,58.18
2023-02-23T12:25:50.463Z,58.18
2023-02-23T12:26:50.198Z,56.52
2023-02-23T12:27:50.169Z,57.68
2023-02-23T12:28:50.174Z,59.30
2023-02-23T12:29:50.145Z,58.19
2023-02-23T12:30:50.194Z,56.57
2023-02-23T12:31:50.353Z,56.22
2023-02-23T12:32:50.137Z,58.18
2023-02-23T12:33:50.200Z,56.37
2023-02-23T12:34:50.132Z,56.87
2023-02-23T12:35:50.074Z,56.84
2023-02-23T12:36:50.085Z,55.87
2023-02-23T12:37:50.067Z,57.65
2023-02-23T12:38:50.065Z,56.60
2023-02-23T12:39:50.047Z,57.25
2023-02-23T12:40:51.703Z,57.96
2023-02-23T12:41:50.024Z,57.40
2023-02-23T12:42:50.022Z,56.60
2023-02-23T12:43:49.998Z,56.07
2023-02-23T12:44:49.988Z,56.27
2023-02-23T12:45:50.003Z,58.05
2023-02-23T12:46:49.972Z,56.47
2023-02-23T12:47:49.950Z,55.63
2023-02-23T12:48:49.954Z,57.00
2023-02-23T12:49:50.738Z,57.98
2023-02-23T12:50:49.930Z,57.23
2023-02-23T12:51:49.903Z,57.56
2023-02-23T12:52:49.911Z,57.51